Time;durP1;ratioP1;P1;durP2;ratioP2;P2;SDS_P1;SDS_P2;PMS_P1;PMS_P2;Temp;Humidity;BMP_temperature;BMP_pressure;BME280_temperature;BME280_humidity;BME280_pressure;Samples;Min_cycle;Max_cycle;Signal;HPM_P1;HPM_P2
2022/11/30 00:00:29;;;;;;;35.23;14.67;;;8.00;99.90;;;;;;5054095;28;20922;-76
2022/11/30 00:02:56;;;;;;;36.67;17.73;;;8.00;99.90;;;;;;5054623;28;20237;-77
2022/11/30 00:05:22;;;;;;;29.37;16.27;;;8.00;99.90;;;;;;5035824;28;20180;-77
2022/11/30 00:07:48;;;;;;;41.00;15.73;;;8.00;99.90;;;;;;5052830;28;20405;-77
2022/11/30 00:10:14;;;;;;;32.90;15.67;;;8.00;99.90;;;;;;5053759;28;20178;-76
2022/11/30 00:12:42;;;;;;;23.37;12.40;;;7.90;99.90;;;;;;5052500;28;20421;-76
2022/11/30 00:15:13;;;;;;;38.63;15.50;;;7.90;99.90;;;;;;5052275;28;20167;-76
2022/11/30 00:17:39;;;;;;;39.63;17.10;;;7.90;99.90;;;;;;5052362;28;20449;-75
2022/11/30 00:20:06;;;;;;;33.30;14.43;;;7.90;99.90;;;;;;5034674;28;20413;-77
2022/11/30 00:22:32;;;;;;;40.57;16.00;;;7.80;99.90;;;;;;5052367;28;20499;-75
2022/11/30 00:25:02;;;;;;;40.47;17.43;;;7.80;99.90;;;;;;5034382;28;20502;-76
2022/11/30 00:27:28;;;;;;;36.47;14.90;;;7.80;99.90;;;;;;5052227;28;20535;-76
2022/11/30 00:29:53;;;;;;;36.63;15.23;;;7.80;99.90;;;;;;5052110;28;20401;-76
2022/11/30 00:32:19;;;;;;;30.80;14.83;;;7.80;99.90;;;;;;5052430;28;20943;-76
2022/11/30 00:34:44;;;;;;;35.90;16.97;;;7.90;99.90;;;;;;5052421;28;20186;-76
2022/11/30 00:37:10;;;;;;;40.50;17.50;;;7.90;99.90;;;;;;5052532;28;20170;-77
2022/11/30 00:39:35;;;;;;;38.27;15.90;;;7.90;99.90;;;;;;5053148;28;20174;-77
2022/11/30 00:42:01;;;;;;;40.90;17.70;;;7.90;99.90;;;;;;5034616;28;20198;-75
2022/11/30 00:44:26;;;;;;;32.50;15.10;;;7.90;99.90;;;;;;5051783;28;20167;-75
2022/11/30 00:46:52;;;;;;;29.83;17.80;;;8.00;99.90;;;;;;5052009;28;20163;-76
2022/11/30 00:49:17;;;;;;;34.30;15.70;;;7.90;99.90;;;;;;5051995;28;20190;-76
2022/11/30 00:51:43;;;;;;;44.17;17.10;;;8.00;99.90;;;;;;5051003;28;20632;-76
2022/11/30 00:54:08;;;;;;;42.03;16.77;;;8.00;99.90;;;;;;5052886;28;20194;-77
2022/11/30 00:56:34;;;;;;;44.23;16.57;;;8.00;99.90;;;;;;5053841;28;20167;-77
2022/11/30 00:58:59;;;;;;;44.30;19.20;;;8.00;99.90;;;;;;5035262;28;20564;-77
2022/11/30 01:01:25;;;;;;;38.80;18.47;;;8.00;99.90;;;;;;5035198;28;20194;-77
2022/11/30 01:03:50;;;;;;;38.93;17.00;;;8.00;99.90;;;;;;5052919;28;20240;-75
2022/11/30 01:06:16;;;;;;;47.73;18.60;;;8.00;99.90;;;;;;5052098;28;20169;-77
2022/11/30 01:08:41;;;;;;;43.13;17.83;;;8.00;99.90;;;;;;5052774;28;20640;-76
2022/11/30 01:11:13;;;;;;;55.37;17.13;;;8.00;99.90;;;;;;5035640;28;20541;-77
2022/11/30 01:13:39;;;;;;;33.57;16.93;;;8.00;99.90;;;;;;5052219;28;20248;-75
2022/11/30 01:16:10;;;;;;;54.00;22.13;;;8.00;99.90;;;;;;5051768;28;20401;-76
2022/11/30 01:18:37;;;;;;;36.63;16.13;;;7.90;99.90;;;;;;5035324;28;20163;-77
2022/11/30 01:21:07;;;;;;;49.87;17.70;;;7.90;99.90;;;;;;5052586;28;20434;-75
2022/11/30 01:23:33;;;;;;;44.67;15.60;;;7.90;99.90;;;;;;5033294;28;20429;-75
2022/11/30 01:25:58;;;;;;;52.20;16.43;;;7.90;99.90;;;;;;5052283;28;20411;-76
2022/11/30 01:28:24;;;;;;;41.47;18.83;;;7.90;99.90;;;;;;5054555;28;20178;-77
2022/11/30 01:31:07;;;;;;;51.83;20.33;;;7.90;99.90;;;;;;5036115;28;20183;-77
2022/11/30 01:33:33;;;;;;;46.33;17.27;;;7.90;99.90;;;;;;5053758;28;20183;-77
2022/11/30 01:36:04;;;;;;;48.10;17.30;;;7.90;99.90;;;;;;5034852;28;20915;-76
2022/11/30 01:38:36;;;;;;;53.47;17.60;;;7.90;99.90;;;;;;5051742;28;20166;-77
2022/11/30 01:41:03;;;;;;;61.43;20.47;;;7.90;99.90;;;;;;5054264;28;20434;-76
2022/11/30 01:43:48;;;;;;;61.07;21.10;;;7.90;99.90;;;;;;5051386;28;20425;-77
2022/11/30 01:46:32;;;;;;;42.67;17.53;;;7.90;99.90;;;;;;5051982;28;20484;-77
2022/11/30 01:49:09;;;;;;;57.50;15.80;;;7.90;99.90;;;;;;5051900;28;20484;-76
2022/11/30 01:52:01;;;;;;;59.40;17.10;;;7.90;99.90;;;;;;5033448;28;20471;-77
2022/11/30 01:54:36;;;;;;;48.47;16.20;;;7.90;99.90;;;;;;5051098;28;20412;-76
2022/11/30 01:57:08;;;;;;;71.40;21.17;;;7.90;99.90;;;;;;5051365;28;20400;-75
2022/11/30 01:59:34;;;;;;;54.67;18.10;;;7.90;99.90;;;;;;5051614;28;20405;-77
2022/11/30 02:01:59;;;;;;;41.93;18.40;;;7.90;99.90;;;;;;5051976;28;20518;-77
2022/11/30 02:04:36;;;;;;;55.50;20.07;;;7.90;99.90;;;;;;5054271;28;20167;-75
2022/11/30 02:07:04;;;;;;;48.50;17.80;;;7.90;99.90;;;;;;5056229;28;20266;-77
2022/11/30 02:09:34;;;;;;;50.73;16.90;;;7.90;99.90;;;;;;5039148;28;20495;-77
2022/11/30 02:12:03;;;;;;;44.20;16.93;;;7.90;99.90;;;;;;5038600;28;20413;-76
2022/11/30 02:14:44;;;;;;;42.17;16.23;;;7.90;99.90;;;;;;5055421;28;20413;-76
2022/11/30 02:17:25;;;;;;;45.50;16.20;;;7.90;99.90;;;;;;5055894;28;20413;-77
2022/11/30 02:20:08;;;;;;;37.47;16.10;;;7.90;99.90;;;;;;5054792;28;20405;-76
2022/11/30 02:22:53;;;;;;;38.10;15.30;;;7.90;99.90;;;;;;5037924;28;20894;-77
2022/11/30 02:26:10;;;;;;;42.93;14.57;;;7.90;99.90;;;;;;5037657;28;20416;-76
2022/11/30 02:28:57;;;;;;;45.13;15.80;;;7.90;99.90;;;;;;4999911;28;20463;-76
2022/11/30 02:31:41;;;;;;;31.17;12.17;;;7.90;99.90;;;;;;5056217;28;20424;-77
2022/11/30 02:34:09;;;;;;;39.47;14.80;;;7.90;99.90;;;;;;5056434;28;20421;-77
2022/11/30 02:36:35;;;;;;;37.60;13.47;;;7.80;99.90;;;;;;5057937;28;20412;-77
2022/11/30 02:39:01;;;;;;;34.40;13.10;;;7.80;99.90;;;;;;5040084;28;20413;-77
2022/11/30 02:41:35;;;;;;;34.90;13.53;;;7.80;99.90;;;;;;5055233;28;20506;-75
2022/11/30 02:44:02;;;;;;;29.97;12.07;;;7.80;99.90;;;;;;5055917;28;20242;-77
2022/11/30 02:46:38;;;;;;;46.80;14.83;;;7.90;99.90;;;;;;5036115;28;20416;-76
2022/11/30 02:49:09;;;;;;;32.60;14.40;;;7.90;99.90;;;;;;5056002;28;20406;-77
2022/11/30 02:51:37;;;;;;;38.00;14.00;;;7.90;99.90;;;;;;5036225;28;20559;-76
2022/11/30 02:54:03;;;;;;;39.70;16.67;;;7.80;99.90;;;;;;5037727;28;20483;-77
2022/11/30 02:56:29;;;;;;;41.60;15.77;;;7.80;99.90;;;;;;5053740;28;20409;-75
2022/11/30 02:58:54;;;;;;;37.47;15.93;;;7.90;99.90;;;;;;5053970;28;20179;-77
2022/11/30 03:01:20;;;;;;;34.37;13.40;;;7.90;99.90;;;;;;5053727;28;21023;-77
2022/11/30 03:03:46;;;;;;;37.53;15.37;;;7.90;99.90;;;;;;5053768;28;20654;-76
2022/11/30 03:06:12;;;;;;;40.60;15.63;;;7.90;99.90;;;;;;5053513;28;20405;-76
2022/11/30 03:08:37;;;;;;;29.57;14.57;;;7.90;99.90;;;;;;5053835;28;20636;-77
2022/11/30 03:11:03;;;;;;;44.83;16.70;;;7.90;99.90;;;;;;5037674;28;20633;-77
2022/11/30 03:13:31;;;;;;;46.27;17.60;;;7.90;99.90;;;;;;5056157;28;20186;-75
2022/11/30 03:15:56;;;;;;;49.40;18.87;;;7.90;99.90;;;;;;5052337;28;20424;-75
2022/11/30 03:18:22;;;;;;;43.30;16.43;;;8.00;99.90;;;;;;5053460;28;20394;-75
2022/11/30 03:20:47;;;;;;;49.73;18.13;;;8.00;99.90;;;;;;5037275;28;20171;-77
2022/11/30 03:23:13;;;;;;;37.90;15.23;;;8.00;99.90;;;;;;5037773;28;20272;-77
2022/11/30 03:25:38;;;;;;;50.90;16.83;;;8.00;99.90;;;;;;5037104;28;20174;-77
2022/11/30 03:28:04;;;;;;;46.37;17.73;;;8.00;99.90;;;;;;5037217;28;20171;-76
2022/11/30 03:30:29;;;;;;;46.47;17.67;;;8.10;99.90;;;;;;5035466;28;20174;-77
2022/11/30 03:32:55;;;;;;;50.67;18.43;;;8.10;99.90;;;;;;5053235;28;20672;-76
2022/11/30 03:35:20;;;;;;;47.57;20.13;;;8.10;99.90;;;;;;5053632;28;20167;-75
2022/11/30 03:37:46;;;;;;;48.73;19.53;;;8.10;99.90;;;;;;5053206;28;20588;-75
2022/11/30 03:40:12;;;;;;;47.90;19.97;;;8.10;99.90;;;;;;5056361;28;20246;-77
2022/11/30 03:42:38;;;;;;;41.20;19.13;;;8.10;99.90;;;;;;5036249;28;20552;-75
2022/11/30 03:45:04;;;;;;;44.77;16.50;;;8.10;99.90;;;;;;5035203;28;20163;-76
2022/11/30 03:47:29;;;;;;;42.37;18.87;;;8.10;99.90;;;;;;5053128;28;20175;-76
2022/11/30 03:49:55;;;;;;;44.83;19.20;;;8.10;99.90;;;;;;5051824;28;20405;-76
2022/11/30 03:52:20;;;;;;;57.80;17.23;;;8.20;99.90;;;;;;5056040;28;20199;-77
2022/11/30 03:54:46;;;;;;;46.70;17.70;;;8.20;99.90;;;;;;5034819;28;20210;-75
2022/11/30 03:57:11;;;;;;;51.20;17.27;;;8.30;99.90;;;;;;5052396;28;20253;-75
2022/11/30 03:59:37;;;;;;;47.53;18.23;;;8.30;99.90;;;;;;5052746;28;20203;-75
2022/11/30 04:02:02;;;;;;;54.83;19.70;;;8.30;99.90;;;;;;5053458;28;20218;-76
2022/11/30 04:04:28;;;;;;;48.97;21.60;;;8.40;99.90;;;;;;5054044;28;20206;-77
2022/11/30 04:06:54;;;;;;;49.27;18.80;;;8.30;99.90;;;;;;5054289;28;20167;-77
2022/11/30 04:09:19;;;;;;;58.57;20.63;;;8.40;99.90;;;;;;5054774;28;20171;-77
2022/11/30 04:11:45;;;;;;;50.20;18.27;;;8.30;99.90;;;;;;5053062;28;20206;-78
2022/11/30 04:14:10;;;;;;;45.67;18.33;;;8.40;99.90;;;;;;5054558;28;20225;-77
2022/11/30 04:16:36;;;;;;;59.80;19.57;;;8.40;99.90;;;;;;5038447;28;20175;-77
2022/11/30 04:19:01;;;;;;;46.90;18.10;;;8.40;99.90;;;;;;5036591;28;20220;-75
2022/11/30 04:21:27;;;;;;;49.63;21.43;;;8.40;99.90;;;;;;5052334;28;20282;-75
2022/11/30 04:23:52;;;;;;;58.53;19.80;;;8.40;99.90;;;;;;5034360;28;20206;-76
2022/11/30 04:26:18;;;;;;;45.93;17.60;;;8.40;99.90;;;;;;5051951;28;20171;-77
2022/11/30 04:28:44;;;;;;;42.63;17.03;;;8.30;99.90;;;;;;5034448;28;20241;-75
2022/11/30 04:31:10;;;;;;;48.93;22.83;;;8.30;99.90;;;;;;5052199;28;20175;-76
2022/11/30 04:33:35;;;;;;;49.83;19.30;;;8.30;99.90;;;;;;5034169;28;20763;-75
2022/11/30 04:36:04;;;;;;;51.30;22.00;;;8.30;99.90;;;;;;5034026;28;20492;-75
2022/11/30 04:38:30;;;;;;;46.93;16.93;;;8.30;99.90;;;;;;5052069;28;20193;-76
2022/11/30 04:40:56;;;;;;;50.50;18.30;;;8.30;99.90;;;;;;5034359;28;20915;-76
2022/11/30 04:43:22;;;;;;;43.73;18.00;;;8.30;99.90;;;;;;5034077;28;20472;-76
2022/11/30 04:45:48;;;;;;;41.83;18.67;;;8.30;99.90;;;;;;5054811;28;20170;-77
2022/11/30 04:48:15;;;;;;;50.60;19.03;;;8.30;99.90;;;;;;5037423;28;20543;-76
2022/11/30 04:50:41;;;;;;;46.87;19.80;;;8.10;99.90;;;;;;5052009;28;20163;-76
2022/11/30 04:53:06;;;;;;;51.53;19.80;;;8.20;99.90;;;;;;5038658;28;20427;-77
2022/11/30 04:55:32;;;;;;;34.50;16.60;;;8.20;99.90;;;;;;5037914;28;20182;-77
2022/11/30 04:57:58;;;;;;;37.93;17.27;;;8.10;99.90;;;;;;5037266;28;20181;-76
2022/11/30 05:00:24;;;;;;;37.33;15.53;;;8.20;99.90;;;;;;5054182;28;20413;-75
2022/11/30 05:02:49;;;;;;;44.30;17.67;;;8.10;99.90;;;;;;5055448;28;20231;-77
2022/11/30 05:05:15;;;;;;;47.43;18.50;;;8.00;99.90;;;;;;5038615;28;20175;-77
2022/11/30 05:07:40;;;;;;;41.93;17.33;;;8.00;99.90;;;;;;5035394;28;20181;-76
2022/11/30 05:10:07;;;;;;;37.10;15.87;;;8.00;99.90;;;;;;5035055;28;20166;-77
2022/11/30 05:12:33;;;;;;;35.43;16.03;;;8.10;99.90;;;;;;5052150;28;20275;-75
2022/11/30 05:14:59;;;;;;;41.80;18.10;;;8.00;99.90;;;;;;5033705;28;20503;-75
2022/11/30 05:17:24;;;;;;;45.13;17.10;;;8.10;99.90;;;;;;5034822;28;20174;-77
2022/11/30 05:19:50;;;;;;;42.83;16.00;;;8.20;99.90;;;;;;5036665;28;20202;-76
2022/11/30 05:22:15;;;;;;;36.60;15.13;;;8.20;99.90;;;;;;5051663;28;20202;-76
2022/11/30 05:24:41;;;;;;;38.13;16.10;;;8.20;99.90;;;;;;5051371;28;20175;-76
2022/11/30 05:27:07;;;;;;;31.80;17.90;;;8.20;99.90;;;;;;5051174;28;20246;-76
2022/11/30 05:29:34;;;;;;;36.43;16.53;;;8.20;99.90;;;;;;5051751;28;20887;-76
2022/11/30 05:32:00;;;;;;;54.20;21.47;;;8.10;99.90;;;;;;5051221;28;20178;-77
2022/11/30 05:34:25;;;;;;;42.33;19.40;;;8.10;99.90;;;;;;5033448;28;20421;-77
2022/11/30 05:36:51;;;;;;;42.40;19.10;;;8.00;99.90;;;;;;5051515;28;20413;-77
2022/11/30 05:39:16;;;;;;;38.67;18.30;;;8.10;99.90;;;;;;5054253;28;20179;-76
2022/11/30 05:41:42;;;;;;;45.97;19.80;;;8.00;99.90;;;;;;5055139;28;20248;-76
2022/11/30 05:44:08;;;;;;;43.30;17.40;;;8.00;99.90;;;;;;5055338;28;20191;-77
2022/11/30 05:46:33;;;;;;;31.40;16.20;;;8.00;99.90;;;;;;5055050;28;20198;-78
2022/11/30 05:48:59;;;;;;;36.43;16.40;;;8.00;99.90;;;;;;5055183;28;20429;-76
2022/11/30 05:51:25;;;;;;;34.33;18.10;;;8.00;99.90;;;;;;5055129;28;20171;-76
2022/11/30 05:53:51;;;;;;;34.67;15.43;;;8.00;99.90;;;;;;5037286;28;20199;-76
2022/11/30 05:56:19;;;;;;;43.23;17.37;;;7.90;99.90;;;;;;5037123;28;20413;-77
2022/11/30 05:58:45;;;;;;;45.13;17.57;;;8.00;99.90;;;;;;5055446;28;20671;-76
2022/11/30 06:01:25;;;;;;;41.70;18.77;;;7.90;99.90;;;;;;5037011;28;20448;-77
2022/11/30 06:03:50;;;;;;;41.80;19.83;;;7.90;99.90;;;;;;5037101;28;20479;-77
2022/11/30 06:06:16;;;;;;;35.33;16.03;;;7.80;99.90;;;;;;5054727;28;20405;-77
2022/11/30 06:08:43;;;;;;;38.27;16.43;;;7.80;99.90;;;;;;5037032;28;20201;-78
2022/11/30 06:11:08;;;;;;;32.10;15.00;;;7.80;99.90;;;;;;5037209;28;20437;-77
2022/11/30 06:13:34;;;;;;;38.70;17.27;;;7.80;99.90;;;;;;5036995;28;20464;-75
2022/11/30 06:16:00;;;;;;;29.13;16.37;;;7.80;99.90;;;;;;5037109;28;20636;-76
2022/11/30 06:18:26;;;;;;;29.80;14.10;;;7.80;99.90;;;;;;5037115;28;20190;-76
2022/11/30 06:20:51;;;;;;;27.07;14.90;;;7.80;99.90;;;;;;5054950;28;20433;-76
2022/11/30 06:23:17;;;;;;;33.27;15.13;;;7.80;99.90;;;;;;5054735;28;20761;-76
2022/11/30 06:25:43;;;;;;;23.67;14.03;;;7.80;99.90;;;;;;5036466;28;20166;-78
2022/11/30 06:28:09;;;;;;;29.27;14.77;;;7.80;99.90;;;;;;5054453;28;20593;-76
2022/11/30 06:30:35;;;;;;;41.03;15.80;;;7.80;99.90;;;;;;5054617;28;20171;-76
2022/11/30 06:33:00;;;;;;;29.77;14.30;;;7.70;99.90;;;;;;5056965;28;20436;-79
2022/11/30 06:35:26;;;;;;;35.47;16.40;;;7.80;99.90;;;;;;5054348;28;20640;-76
2022/11/30 06:37:51;;;;;;;28.50;16.17;;;7.80;99.90;;;;;;5054505;28;20199;-76
2022/11/30 06:40:17;;;;;;;36.93;15.00;;;7.70;99.90;;;;;;5054364;28;20178;-75
2022/11/30 06:42:43;;;;;;;26.77;16.33;;;7.70;99.90;;;;;;5054140;28;20198;-76
2022/11/30 06:45:09;;;;;;;26.03;13.43;;;7.70;99.90;;;;;;5053973;28;20170;-77
2022/11/30 06:47:34;;;;;;;29.23;15.73;;;7.70;99.90;;;;;;5054257;28;20583;-76
2022/11/30 06:50:00;;;;;;;22.77;13.27;;;7.80;99.90;;;;;;5054029;28;20401;-77
2022/11/30 06:52:26;;;;;;;27.00;15.07;;;7.80;99.90;;;;;;5054191;28;20252;-75
2022/11/30 06:54:51;;;;;;;31.83;14.70;;;7.80;99.90;;;;;;5053681;28;20175;-77
2022/11/30 06:57:17;;;;;;;27.90;15.57;;;7.80;99.90;;;;;;5036058;28;20760;-76
2022/11/30 06:59:42;;;;;;;24.50;14.00;;;7.90;99.90;;;;;;5036078;28;20182;-76
2022/11/30 07:02:15;;;;;;;31.00;14.63;;;7.80;99.90;;;;;;5035871;28;20206;-77
2022/11/30 07:04:41;;;;;;;25.97;12.93;;;7.80;99.90;;;;;;5053605;28;20179;-76
2022/11/30 07:07:06;;;;;;;25.40;12.30;;;7.80;99.90;;;;;;5053812;28;20404;-76
2022/11/30 07:09:33;;;;;;;29.93;14.33;;;7.70;99.90;;;;;;5054207;28;20171;-75
2022/11/30 07:11:59;;;;;;;25.07;13.60;;;7.70;99.90;;;;;;5053669;28;20214;-76
2022/11/30 07:14:25;;;;;;;21.60;12.20;;;7.60;99.90;;;;;;5053336;28;20838;-76
2022/11/30 07:16:51;;;;;;;30.43;15.97;;;7.60;99.90;;;;;;5053746;28;20182;-77
2022/11/30 07:19:16;;;;;;;25.93;14.60;;;7.60;99.90;;;;;;5054141;28;20179;-77
2022/11/30 07:21:42;;;;;;;30.50;15.17;;;7.60;99.90;;;;;;5053280;28;20453;-77
2022/11/30 07:26:55;;;;;;;28.90;14.17;;;7.50;99.90;;;;;;5054147;28;20636;-78
2022/11/30 07:29:20;;;;;;;29.33;14.87;;;7.40;99.90;;;;;;5035855;28;20417;-80
2022/11/30 07:31:53;;;;;;;30.27;14.93;;;7.40;99.90;;;;;;5054684;28;20183;-79
2022/11/30 07:34:19;;;;;;;27.83;14.03;;;7.40;99.90;;;;;;5054651;28;20248;-76
2022/11/30 07:36:45;;;;;;;29.60;14.70;;;7.30;99.90;;;;;;5035381;28;20922;-78
2022/11/30 07:39:12;;;;;;;30.43;16.10;;;7.30;99.90;;;;;;5053019;28;20421;-77
2022/11/30 07:41:38;;;;;;;24.57;14.10;;;7.30;99.90;;;;;;5035190;28;20465;-76
2022/11/30 07:44:05;;;;;;;31.50;14.23;;;7.30;99.90;;;;;;5035053;28;20425;-77
2022/11/30 07:46:34;;;;;;;25.87;14.07;;;7.30;99.90;;;;;;5052840;28;20467;-77
2022/11/30 07:49:04;;;;;;;28.90;15.03;;;7.30;99.90;;;;;;5053179;28;20408;-76
2022/11/30 07:51:30;;;;;;;27.57;14.90;;;7.30;99.90;;;;;;5052892;28;20402;-76
2022/11/30 07:53:56;;;;;;;27.97;14.60;;;7.30;99.90;;;;;;5034955;28;20799;-77
2022/11/30 07:56:23;;;;;;;24.53;13.33;;;7.30;99.90;;;;;;5034857;28;20413;-76
2022/11/30 07:58:52;;;;;;;30.20;14.10;;;7.30;99.90;;;;;;5052879;28;20435;-76
2022/11/30 08:01:20;;;;;;;26.90;14.23;;;7.30;99.90;;;;;;5052338;28;20776;-77
2022/11/30 08:03:46;;;;;;;25.97;14.43;;;7.40;99.90;;;;;;5052747;28;20491;-76
2022/11/30 08:06:14;;;;;;;28.03;13.73;;;7.40;99.90;;;;;;5052432;28;20402;-76
2022/11/30 08:08:42;;;;;;;29.90;15.67;;;7.40;99.90;;;;;;5052778;28;20254;-76
2022/11/30 08:11:10;;;;;;;30.50;16.63;;;7.40;99.90;;;;;;5034793;28;20889;-77
2022/11/30 08:13:36;;;;;;;25.70;14.70;;;7.50;99.90;;;;;;5052584;28;20432;-76
2022/11/30 08:16:03;;;;;;;26.00;14.10;;;7.50;99.90;;;;;;5052179;28;20910;-77
2022/11/30 08:18:28;;;;;;;31.03;16.57;;;7.50;99.90;;;;;;5052194;28;20410;-76
2022/11/30 08:20:59;;;;;;;29.93;17.20;;;7.50;99.90;;;;;;5052327;28;20775;-76
2022/11/30 08:23:27;;;;;;;29.77;16.83;;;7.50;99.90;;;;;;5052178;28;20210;-76
2022/11/30 08:25:53;;;;;;;24.17;13.30;;;7.60;99.90;;;;;;5052119;28;20409;-75
2022/11/30 08:28:19;;;;;;;34.80;14.80;;;7.60;99.90;;;;;;5052266;28;20401;-75
2022/11/30 08:30:44;;;;;;;29.20;17.50;;;7.70;99.90;;;;;;5052229;28;20206;-75
2022/11/30 08:33:10;;;;;;;29.90;14.90;;;7.70;99.90;;;;;;5034291;28;20562;-76
2022/11/30 08:35:35;;;;;;;28.30;17.10;;;7.70;99.90;;;;;;5052004;28;20167;-76
2022/11/30 08:38:01;;;;;;;30.70;14.53;;;7.60;99.90;;;;;;5052166;28;20171;-76
2022/11/30 08:40:26;;;;;;;29.23;16.07;;;7.70;99.90;;;;;;5052120;28;20636;-77
2022/11/30 08:42:52;;;;;;;23.37;14.07;;;7.70;99.90;;;;;;5051961;28;20199;-75
2022/11/30 08:45:17;;;;;;;23.90;15.77;;;7.80;99.90;;;;;;5051788;28;20182;-76
2022/11/30 08:47:43;;;;;;;30.80;16.97;;;7.80;99.90;;;;;;5052016;28;20163;-76
2022/11/30 08:50:09;;;;;;;33.63;14.73;;;7.80;99.90;;;;;;5051979;28;20171;-77
2022/11/30 08:52:34;;;;;;;25.00;13.10;;;7.90;99.90;;;;;;5033973;28;20198;-76
2022/11/30 08:55:00;;;;;;;25.60;14.87;;;7.90;99.90;;;;;;5051650;28;20174;-76
2022/11/30 08:57:25;;;;;;;22.60;15.57;;;7.90;99.90;;;;;;5051938;28;20205;-76
2022/11/30 08:59:51;;;;;;;23.47;14.60;;;7.90;99.90;;;;;;5051950;28;20536;-76
2022/11/30 09:02:18;;;;;;;21.07;13.90;;;7.90;99.90;;;;;;5051641;28;20579;-76
2022/11/30 09:04:46;;;;;;;31.77;15.83;;;7.80;99.90;;;;;;5051546;28;20561;-77
2022/11/30 09:07:12;;;;;;;25.83;14.53;;;7.90;99.90;;;;;;5051817;28;20475;-76
2022/11/30 09:09:38;;;;;;;31.43;14.43;;;7.90;99.90;;;;;;5051758;28;20406;-77
2022/11/30 09:12:04;;;;;;;21.50;12.90;;;7.90;99.90;;;;;;5033837;28;20174;-77
2022/11/30 09:14:29;;;;;;;29.30;15.47;;;7.90;99.90;;;;;;5054674;28;21008;-77
2022/11/30 09:16:55;;;;;;;28.27;14.97;;;7.80;99.90;;;;;;5055880;28;20446;-76
2022/11/30 09:19:21;;;;;;;34.07;16.17;;;7.90;99.90;;;;;;5037953;28;20217;-75
2022/11/30 09:21:46;;;;;;;22.50;13.70;;;7.80;99.90;;;;;;5037757;28;20252;-76
2022/11/30 09:24:12;;;;;;;23.97;13.57;;;7.80;99.90;;;;;;5055529;28;20577;-79
2022/11/30 09:26:37;;;;;;;27.20;14.70;;;7.80;99.90;;;;;;5055552;28;20200;-76
2022/11/30 09:29:03;;;;;;;26.27;15.37;;;7.90;99.90;;;;;;5055646;28;20528;-76
2022/11/30 09:31:28;;;;;;;25.07;14.97;;;7.80;99.90;;;;;;5037770;28;20182;-77
2022/11/30 09:33:56;;;;;;;26.20;15.30;;;7.80;99.90;;;;;;5055604;28;20183;-77
2022/11/30 09:36:26;;;;;;;26.93;16.40;;;7.80;99.90;;;;;;5037839;28;20163;-77
2022/11/30 09:38:52;;;;;;;25.30;14.13;;;7.80;99.90;;;;;;5055754;28;20401;-76
2022/11/30 09:41:37;;;;;;;28.60;15.47;;;7.70;99.90;;;;;;5055339;28;20441;-76
2022/11/30 09:44:44;;;;;;;28.80;14.63;;;7.80;99.90;;;;;;5055279;28;20759;-76
2022/11/30 09:47:31;;;;;;;28.17;15.47;;;7.70;99.90;;;;;;4941324;29;20421;-79
2022/11/30 09:50:02;;;;;;;25.00;14.53;;;7.70;99.90;;;;;;4955127;29;20546;-76
2022/11/30 09:52:39;;;;;;;28.07;14.47;;;7.70;99.90;;;;;;5022057;28;20454;-76
2022/11/30 09:55:09;;;;;;;24.50;14.37;;;7.80;99.90;;;;;;5055134;28;20804;-77
2022/11/30 09:57:47;;;;;;;24.83;15.43;;;7.80;99.90;;;;;;5055182;28;20397;-76
2022/11/30 10:00:16;;;;;;;19.93;12.33;;;7.90;99.90;;;;;;5055136;28;20405;-76
2022/11/30 10:02:42;;;;;;;31.00;15.07;;;8.00;99.90;;;;;;5054876;28;20535;-77
2022/11/30 10:05:18;;;;;;;30.47;14.67;;;7.90;99.90;;;;;;5036914;28;20455;-77
2022/11/30 10:08:21;;;;;;;25.90;14.60;;;8.00;99.90;;;;;;5055236;28;20483;-76
2022/11/30 10:11:05;;;;;;;25.10;14.13;;;7.90;99.90;;;;;;5054989;28;20401;-75
2022/11/30 10:14:10;;;;;;;30.03;14.80;;;8.00;99.90;;;;;;5036973;28;20421;-77
2022/11/30 10:17:18;;;;;;;27.93;15.90;;;8.00;99.90;;;;;;5037066;28;20433;-76
2022/11/30 10:20:26;;;;;;;27.10;15.23;;;8.00;99.90;;;;;;5007849;28;20467;-76
2022/11/30 10:23:05;;;;;;;28.80;16.90;;;8.00;99.90;;;;;;5031867;28;20491;-77
2022/11/30 10:25:56;;;;;;;31.10;15.87;;;7.90;99.90;;;;;;5053711;28;20397;-76
2022/11/30 10:28:33;;;;;;;26.83;15.20;;;7.80;99.90;;;;;;5054469;28;20409;-77
2022/11/30 10:31:00;;;;;;;27.97;15.10;;;7.80;99.90;;;;;;5054475;28;20445;-76
2022/11/30 10:33:31;;;;;;;30.97;16.50;;;7.80;99.90;;;;;;5054346;28;20961;-77
2022/11/30 10:36:04;;;;;;;30.93;17.60;;;7.80;99.90;;;;;;5045097;28;20410;-76
2022/11/30 10:38:38;;;;;;;28.60;15.73;;;7.90;99.90;;;;;;5043707;28;20417;-77
2022/11/30 10:41:19;;;;;;;33.63;17.60;;;7.80;99.90;;;;;;5033704;28;20413;-76
2022/11/30 10:43:54;;;;;;;33.20;16.40;;;7.90;99.90;;;;;;5036435;28;20437;-76
2022/11/30 10:46:21;;;;;;;28.83;15.63;;;7.70;99.90;;;;;;5053993;28;20477;-76
2022/11/30 10:48:57;;;;;;;37.33;18.43;;;7.80;99.90;;;;;;5036421;28;20907;-77
2022/11/30 10:51:24;;;;;;;28.87;17.77;;;7.70;99.90;;;;;;5037030;28;20397;-76
2022/11/30 10:53:49;;;;;;;28.30;14.83;;;7.80;99.90;;;;;;5054138;28;20421;-76
2022/11/30 10:56:15;;;;;;;36.17;17.53;;;7.70;99.90;;;;;;5035896;28;20990;-76
2022/11/30 10:58:57;;;;;;;38.73;18.37;;;7.70;99.90;;;;;;5054029;28;20163;-77
2022/11/30 11:01:40;;;;;;;36.43;15.60;;;7.90;99.90;;;;;;5054033;28;20147;-76
2022/11/30 11:04:14;;;;;;;25.97;16.07;;;7.90;99.90;;;;;;5053982;28;20429;-76
2022/11/30 11:06:56;;;;;;;32.57;16.70;;;8.00;99.90;;;;;;5053782;28;20480;-76
2022/11/30 11:09:45;;;;;;;29.53;16.40;;;8.20;99.90;;;;;;5053962;28;20436;-76
2022/11/30 11:12:29;;;;;;;35.60;17.43;;;8.10;99.90;;;;;;5035943;28;20433;-76
2022/11/30 11:15:17;;;;;;;22.50;13.27;;;8.20;99.90;;;;;;5053576;28;20903;-76
2022/11/30 11:17:43;;;;;;;23.93;13.30;;;8.10;99.90;;;;;;5035892;28;20895;-77
2022/11/30 11:20:32;;;;;;;28.27;13.90;;;8.10;99.90;;;;;;5053605;28;20443;-76
2022/11/30 11:22:58;;;;;;;25.40;15.07;;;8.20;99.90;;;;;;5026394;28;20209;-78
2022/11/30 11:25:32;;;;;;;28.60;16.53;;;8.20;99.90;;;;;;5042459;28;20398;-78
2022/11/30 11:28:07;;;;;;;26.67;16.70;;;8.20;99.90;;;;;;5041944;28;20402;-77
2022/11/30 11:30:34;;;;;;;33.43;17.13;;;8.20;99.90;;;;;;5039463;28;20402;-77
2022/11/30 11:33:23;;;;;;;27.83;14.47;;;8.20;99.90;;;;;;5033150;28;20472;-77
2022/11/30 11:35:52;;;;;;;31.57;17.37;;;8.30;99.90;;;;;;5021948;28;20528;-77
2022/11/30 11:38:28;;;;;;;38.97;15.57;;;8.30;99.90;;;;;;5035308;28;20410;-79
2022/11/30 11:41:00;;;;;;;36.77;17.10;;;8.30;99.90;;;;;;5016320;28;20915;-76
2022/11/30 11:43:29;;;;;;;23.87;14.83;;;8.30;99.90;;;;;;5033217;28;20453;-76
2022/11/30 11:45:59;;;;;;;34.77;19.80;;;8.20;99.90;;;;;;5032948;28;20399;-75
2022/11/30 11:48:40;;;;;;;33.90;17.93;;;8.00;99.90;;;;;;5033048;28;20402;-76
2022/11/30 11:51:09;;;;;;;30.20;17.50;;;8.10;99.90;;;;;;5015112;28;20525;-76
2022/11/30 11:53:54;;;;;;;31.90;19.90;;;8.20;99.90;;;;;;5033113;28;20456;-76
2022/11/30 11:56:26;;;;;;;31.63;19.00;;;8.10;99.90;;;;;;5032765;28;20974;-76
2022/11/30 11:58:58;;;;;;;39.90;19.60;;;8.00;99.90;;;;;;5034143;28;20402;-77
2022/11/30 12:01:52;;;;;;;35.73;19.50;;;8.00;99.90;;;;;;5032818;28;20464;-77
2022/11/30 12:04:32;;;;;;;35.60;20.07;;;8.10;99.90;;;;;;5032981;28;20449;-76
2022/11/30 12:07:02;;;;;;;35.37;19.87;;;8.10;99.90;;;;;;5032844;28;20434;-76
2022/11/30 12:09:43;;;;;;;37.93;19.63;;;8.10;99.90;;;;;;5032893;28;20410;-76
2022/11/30 12:12:12;;;;;;;40.57;19.03;;;8.10;99.90;;;;;;5032576;28;20488;-76
2022/11/30 12:14:37;;;;;;;39.70;18.90;;;8.20;99.90;;;;;;5032136;28;20402;-76
2022/11/30 12:17:40;;;;;;;35.23;19.03;;;8.20;99.90;;;;;;5014846;28;20422;-75
2022/11/30 12:20:27;;;;;;;37.33;20.40;;;8.10;99.90;;;;;;5020792;28;20223;-76
2022/11/30 12:23:22;;;;;;;39.20;20.73;;;8.10;99.90;;;;;;5032414;28;20446;-75
2022/11/30 12:25:57;;;;;;;38.53;20.60;;;8.00;99.90;;;;;;5032338;28;20405;-76
2022/11/30 12:29:00;;;;;;;37.87;18.80;;;8.10;99.90;;;;;;5015015;28;20517;-77
2022/11/30 12:31:59;;;;;;;45.50;21.97;;;8.10;99.90;;;;;;5032509;28;20421;-76
2022/11/30 12:34:31;;;;;;;42.27;21.07;;;8.20;99.90;;;;;;5032105;28;20560;-76
2022/11/30 12:36:59;;;;;;;35.53;21.70;;;8.10;99.90;;;;;;5032235;28;20406;-77
2022/11/30 12:39:34;;;;;;;39.60;19.63;;;8.10;99.90;;;;;;5015183;28;20449;-77
2022/11/30 12:42:25;;;;;;;40.20;20.10;;;8.20;99.90;;;;;;5032420;28;20449;-77
2022/11/30 12:45:16;;;;;;;37.80;19.97;;;8.20;99.90;;;;;;5033120;28;20403;-75
2022/11/30 12:48:00;;;;;;;34.37;20.13;;;8.30;99.90;;;;;;5014484;28;20421;-75
2022/11/30 12:50:55;;;;;;;38.20;21.20;;;8.40;99.90;;;;;;5032148;28;20410;-75
2022/11/30 12:53:31;;;;;;;39.30;21.20;;;8.40;99.90;;;;;;5031924;28;20469;-76